Time;durP1;ratioP1;P1;durP2;ratioP2;P2;SDS_P1;SDS_P2;PMS_P1;PMS_P2;Temp;Humidity;BMP_temperature;BMP_pressure;BME280_temperature;BME280_humidity;BME280_pressure;Samples;Min_cycle;Max_cycle;Signal;HPM_P1;HPM_P2
2021/09/24 00:00:52;;;;;;;5.10;1.27;;;15.20;99.90;;;;;;5058415;28;20186;-83
2021/09/24 00:03:18;;;;;;;1.77;1.10;;;15.20;99.90;;;;;;5042810;28;20193;-83
2021/09/24 00:05:43;;;;;;;2.10;1.07;;;15.20;99.90;;;;;;5060499;28;20208;-82
2021/09/24 00:08:09;;;;;;;12.00;1.33;;;15.20;99.90;;;;;;5025908;28;20674;-81
2021/09/24 00:10:35;;;;;;;4.37;1.50;;;15.20;99.90;;;;;;5043873;28;20225;-81
2021/09/24 00:13:01;;;;;;;1.83;1.57;;;15.10;99.90;;;;;;5059773;28;21062;-80
2021/09/24 00:15:27;;;;;;;5.37;1.97;;;15.10;99.90;;;;;;5028512;28;20213;-83
2021/09/24 00:17:52;;;;;;;2.83;1.00;;;15.10;99.90;;;;;;5043781;28;20214;-83
2021/09/24 00:20:18;;;;;;;2.73;0.77;;;15.10;99.90;;;;;;5043269;28;20214;-82
2021/09/24 00:22:44;;;;;;;4.43;0.93;;;15.10;99.90;;;;;;5061918;28;20228;-81
2021/09/24 00:25:10;;;;;;;5.00;1.07;;;15.10;99.90;;;;;;5043577;28;20228;-81
2021/09/24 00:27:36;;;;;;;1.63;0.87;;;15.20;99.90;;;;;;5028293;28;20192;-83
2021/09/24 00:30:03;;;;;;;3.53;1.03;;;15.20;99.90;;;;;;5043983;28;21474;-82
2021/09/24 00:32:28;;;;;;;4.73;1.23;;;15.30;99.90;;;;;;5058260;28;20209;-81
2021/09/24 00:34:55;;;;;;;3.10;1.03;;;15.30;99.90;;;;;;5058359;28;20252;-83
2021/09/24 00:37:20;;;;;;;11.43;2.00;;;15.40;99.90;;;;;;5059584;28;20281;-81
2021/09/24 00:39:46;;;;;;;7.33;2.00;;;15.40;99.90;;;;;;5058368;28;20190;-82
2021/09/24 00:42:12;;;;;;;6.03;1.43;;;15.40;99.90;;;;;;5061793;28;20247;-82
2021/09/24 00:44:41;;;;;;;8.03;1.37;;;15.50;99.90;;;;;;5061763;28;20213;-82
2021/09/24 00:47:08;;;;;;;5.20;1.70;;;15.50;99.90;;;;;;5055018;28;20217;-82
2021/09/24 00:49:34;;;;;;;3.73;1.13;;;15.50;99.90;;;;;;5062398;28;20241;-82
2021/09/24 00:51:59;;;;;;;3.50;1.43;;;15.50;99.90;;;;;;5060812;28;20228;-81
2021/09/24 00:54:26;;;;;;;4.77;1.07;;;15.50;99.90;;;;;;5055042;28;20513;-82
2021/09/24 00:56:52;;;;;;;5.40;0.97;;;15.50;99.90;;;;;;5045348;28;20282;-83
2021/09/24 00:59:19;;;;;;;3.53;1.30;;;15.50;99.90;;;;;;5039198;28;21133;-81
2021/09/24 01:01:45;;;;;;;9.53;1.30;;;15.60;99.90;;;;;;5046843;28;20220;-83
2021/09/24 01:04:11;;;;;;;0.70;0.70;;;15.60;99.90;;;;;;5063527;28;20233;-82
2021/09/24 01:06:39;;;;;;;8.23;1.27;;;15.50;99.90;;;;;;5064372;28;20235;-82
2021/09/24 01:09:05;;;;;;;2.93;0.97;;;15.60;99.90;;;;;;5057044;28;20267;-82
2021/09/24 01:11:31;;;;;;;8.03;2.30;;;15.50;99.90;;;;;;5062970;28;20216;-83
2021/09/24 01:13:57;;;;;;;7.53;1.33;;;15.50;99.90;;;;;;5046055;28;20240;-83
2021/09/24 01:16:23;;;;;;;4.93;0.93;;;15.50;99.90;;;;;;5063605;28;20542;-82
2021/09/24 01:18:48;;;;;;;3.23;0.80;;;15.50;99.90;;;;;;5064131;28;20734;-81
2021/09/24 01:21:14;;;;;;;2.50;1.17;;;15.50;99.90;;;;;;5063978;28;20200;-82
2021/09/24 01:23:40;;;;;;;3.57;1.07;;;15.50;99.90;;;;;;5046196;28;20252;-82
2021/09/24 01:26:06;;;;;;;4.30;1.47;;;15.60;99.90;;;;;;5046610;28;20242;-82
2021/09/24 01:28:32;;;;;;;8.17;1.53;;;15.60;99.90;;;;;;5063926;28;20597;-82
2021/09/24 01:30:57;;;;;;;7.17;1.67;;;15.60;99.90;;;;;;5064038;28;20185;-83
2021/09/24 01:33:23;;;;;;;3.37;0.90;;;15.60;99.90;;;;;;5024657;28;20217;-82
2021/09/24 01:35:49;;;;;;;1.63;0.87;;;15.60;99.90;;;;;;5062967;28;20221;-83
2021/09/24 01:38:15;;;;;;;3.30;1.90;;;15.60;99.90;;;;;;5057975;28;20294;-82
2021/09/24 01:40:40;;;;;;;6.00;1.87;;;15.70;99.90;;;;;;5043719;28;20221;-82
2021/09/24 01:43:06;;;;;;;5.40;1.30;;;15.70;99.90;;;;;;5043275;28;20270;-81
2021/09/24 01:45:32;;;;;;;3.90;1.97;;;15.70;99.90;;;;;;5058031;28;20441;-81
2021/09/24 01:47:57;;;;;;;6.47;1.03;;;15.80;99.90;;;;;;5059523;28;20671;-83
2021/09/24 01:50:23;;;;;;;3.50;1.70;;;15.80;99.90;;;;;;5056421;28;20230;-84
2021/09/24 01:52:49;;;;;;;1.70;1.07;;;15.70;99.90;;;;;;5042998;28;20245;-84
2021/09/24 01:55:15;;;;;;;3.43;0.77;;;15.80;99.90;;;;;;5054704;28;20335;-82
2021/09/24 01:57:41;;;;;;;2.37;0.93;;;15.70;99.90;;;;;;5045059;28;20670;-83
2021/09/24 02:00:10;;;;;;;8.87;1.47;;;15.80;99.90;;;;;;5046027;28;20229;-81
2021/09/24 02:02:36;;;;;;;4.13;1.57;;;15.80;99.90;;;;;;5062708;28;20217;-83
2021/09/24 02:05:03;;;;;;;8.77;1.33;;;15.80;99.90;;;;;;5059034;28;20209;-84
2021/09/24 02:07:29;;;;;;;3.30;0.80;;;15.80;99.90;;;;;;5060954;28;20237;-82
2021/09/24 02:09:55;;;;;;;10.60;1.43;;;15.80;99.90;;;;;;5062242;28;20197;-81
2021/09/24 02:12:20;;;;;;;11.17;1.30;;;15.80;99.90;;;;;;5028843;28;20192;-81
2021/09/24 02:14:46;;;;;;;12.53;1.53;;;15.80;99.90;;;;;;5060830;28;20221;-81
2021/09/24 02:17:12;;;;;;;3.73;1.00;;;15.90;99.90;;;;;;5028032;28;20221;-82
2021/09/24 02:19:37;;;;;;;5.90;1.20;;;15.80;99.90;;;;;;5061566;28;20241;-84
2021/09/24 02:22:04;;;;;;;1.87;1.00;;;15.90;99.90;;;;;;5062466;28;20705;-82
2021/09/24 02:24:29;;;;;;;1.60;0.97;;;15.90;99.90;;;;;;5046110;28;20248;-82
2021/09/24 02:26:56;;;;;;;3.40;1.13;;;15.90;99.90;;;;;;5057299;28;20217;-82
2021/09/24 02:29:22;;;;;;;2.97;0.80;;;15.90;99.90;;;;;;5045801;28;20284;-83
2021/09/24 02:31:48;;;;;;;1.60;1.03;;;15.90;99.90;;;;;;5044706;28;20321;-83
2021/09/24 02:34:14;;;;;;;4.73;1.73;;;15.90;99.90;;;;;;5062004;28;20295;-81
2021/09/24 02:36:40;;;;;;;2.67;1.10;;;15.90;99.90;;;;;;5045465;28;20185;-82
2021/09/24 02:39:06;;;;;;;7.47;1.30;;;16.00;99.90;;;;;;5063305;28;20217;-82
2021/09/24 02:41:33;;;;;;;1.70;0.80;;;16.00;99.90;;;;;;5060992;28;20332;-81
2021/09/24 02:43:58;;;;;;;1.73;1.10;;;16.00;99.90;;;;;;5061758;28;20221;-82
2021/09/24 02:46:24;;;;;;;1.87;1.10;;;16.00;99.90;;;;;;5062072;28;20216;-83
2021/09/24 02:48:50;;;;;;;4.40;1.60;;;16.00;99.90;;;;;;5045951;28;20189;-82
2021/09/24 02:51:16;;;;;;;1.73;1.00;;;16.00;99.90;;;;;;5045151;28;20978;-85
2021/09/24 02:53:41;;;;;;;1.23;1.13;;;16.00;99.90;;;;;;5060776;28;20221;-82
2021/09/24 02:56:07;;;;;;;3.70;1.10;;;16.00;99.90;;;;;;5028613;28;20308;-83
2021/09/24 02:58:33;;;;;;;4.77;0.90;;;16.00;99.90;;;;;;5062460;28;20224;-82
2021/09/24 03:01:00;;;;;;;5.17;0.97;;;16.10;99.90;;;;;;5062088;28;20193;-83
2021/09/24 03:03:26;;;;;;;3.43;1.20;;;16.00;99.90;;;;;;5045083;28;20192;-83
2021/09/24 03:05:52;;;;;;;5.30;1.10;;;16.10;99.90;;;;;;5061056;28;20730;-82
2021/09/24 03:08:18;;;;;;;6.20;2.17;;;16.10;99.90;;;;;;5061700;28;21045;-82
2021/09/24 03:10:44;;;;;;;1.03;0.97;;;16.10;99.90;;;;;;5044835;28;20225;-82
2021/09/24 03:13:10;;;;;;;4.13;1.80;;;16.10;99.90;;;;;;5053816;28;20590;-83
2021/09/24 03:15:35;;;;;;;2.00;0.83;;;16.10;99.90;;;;;;5053656;28;20208;-83
2021/09/24 03:18:02;;;;;;;3.37;1.20;;;16.10;99.90;;;;;;5061082;28;20221;-82
2021/09/24 03:20:28;;;;;;;4.70;1.43;;;16.10;99.90;;;;;;5056495;28;20249;-84
2021/09/24 03:22:55;;;;;;;1.00;0.83;;;16.10;99.90;;;;;;5044225;28;20213;-83
2021/09/24 03:25:21;;;;;;;3.33;0.90;;;16.10;99.90;;;;;;5057120;28;20217;-82
2021/09/24 03:27:48;;;;;;;7.27;1.40;;;16.10;99.90;;;;;;5044026;28;20647;-82
2021/09/24 03:30:15;;;;;;;13.03;2.57;;;16.20;99.90;;;;;;5060711;28;20193;-83
2021/09/24 03:32:42;;;;;;;2.03;0.87;;;16.20;99.90;;;;;;5057956;28;20227;-83
2021/09/24 03:35:08;;;;;;;2.67;1.37;;;16.20;99.90;;;;;;5060953;28;20245;-82
2021/09/24 03:37:34;;;;;;;4.87;1.43;;;16.20;99.90;;;;;;5043060;28;20221;-83
2021/09/24 03:40:00;;;;;;;1.53;1.00;;;16.20;99.90;;;;;;5042811;28;20247;-82
2021/09/24 03:42:26;;;;;;;4.90;1.30;;;16.20;99.90;;;;;;5060545;28;20723;-83
2021/09/24 03:44:51;;;;;;;0.97;0.73;;;16.20;99.90;;;;;;5059154;28;20250;-83
2021/09/24 03:47:17;;;;;;;4.27;1.40;;;16.20;99.90;;;;;;5043099;28;20217;-81
2021/09/24 03:49:43;;;;;;;5.43;1.30;;;16.20;99.90;;;;;;5044339;28;20232;-82
2021/09/24 03:52:09;;;;;;;3.17;2.07;;;16.20;99.90;;;;;;5043346;28;20229;-82
2021/09/24 03:54:35;;;;;;;3.13;1.10;;;16.20;99.90;;;;;;5042476;28;20340;-82
2021/09/24 03:57:00;;;;;;;6.07;1.20;;;16.20;99.90;;;;;;5059441;28;20229;-82
2021/09/24 03:59:27;;;;;;;2.90;1.10;;;16.20;99.90;;;;;;5059709;28;20220;-82
2021/09/24 04:01:52;;;;;;;1.73;1.30;;;16.20;99.90;;;;;;5061187;28;20678;-83
2021/09/24 04:04:18;;;;;;;6.03;0.97;;;16.20;99.90;;;;;;5061242;28;20278;-83
2021/09/24 04:06:44;;;;;;;6.37;1.33;;;16.20;99.90;;;;;;5061257;28;20217;-82
2021/09/24 04:09:10;;;;;;;4.33;1.13;;;16.30;99.90;;;;;;5060489;28;20221;-82
2021/09/24 04:11:39;;;;;;;7.43;1.60;;;16.20;99.90;;;;;;5062201;28;20503;-82
2021/09/24 04:14:06;;;;;;;10.57;1.87;;;16.20;99.90;;;;;;5044584;28;20312;-82
2021/09/24 04:16:32;;;;;;;4.17;1.27;;;16.20;99.90;;;;;;5061792;28;20390;-85
2021/09/24 04:18:58;;;;;;;1.80;0.90;;;16.30;99.90;;;;;;5047402;28;20268;-82
2021/09/24 04:21:24;;;;;;;3.43;1.17;;;16.20;99.90;;;;;;5061582;28;20193;-84
2021/09/24 04:23:49;;;;;;;2.47;1.33;;;16.30;99.90;;;;;;5064374;28;20545;-83
2021/09/24 04:26:15;;;;;;;4.83;1.33;;;16.30;99.90;;;;;;5049069;28;20313;-82
2021/09/24 04:28:41;;;;;;;4.13;1.27;;;16.30;99.90;;;;;;5065000;28;20731;-83
2021/09/24 04:31:07;;;;;;;4.50;1.40;;;16.20;99.90;;;;;;5064357;28;20217;-82
2021/09/24 04:33:33;;;;;;;7.77;1.60;;;16.30;99.90;;;;;;5064493;28;20304;-82
2021/09/24 04:35:59;;;;;;;2.67;1.23;;;16.30;99.90;;;;;;5066116;28;20221;-82
2021/09/24 04:38:24;;;;;;;2.70;1.27;;;16.30;99.90;;;;;;5063796;28;20621;-83
2021/09/24 04:40:50;;;;;;;7.23;1.37;;;16.30;99.90;;;;;;5047814;28;20223;-83
2021/09/24 04:43:16;;;;;;;5.87;1.20;;;16.30;99.90;;;;;;5047521;28;20636;-82
2021/09/24 04:45:42;;;;;;;3.10;1.00;;;16.30;99.90;;;;;;5031551;28;20594;-82
2021/09/24 04:48:07;;;;;;;5.13;0.93;;;16.30;99.90;;;;;;5048054;28;21077;-83
2021/09/24 04:50:33;;;;;;;5.03;1.20;;;16.30;99.90;;;;;;5047810;28;20594;-83
2021/09/24 04:52:59;;;;;;;2.10;1.27;;;16.30;99.90;;;;;;5047958;28;20318;-83
2021/09/24 04:55:25;;;;;;;6.17;1.17;;;16.30;99.90;;;;;;5031394;28;20304;-83
2021/09/24 04:57:51;;;;;;;2.57;1.27;;;16.30;99.90;;;;;;5063188;28;20243;-82
2021/09/24 05:00:16;;;;;;;4.67;1.20;;;16.30;99.90;;;;;;5060920;28;20193;-84
2021/09/24 05:02:42;;;;;;;7.63;1.43;;;16.30;99.90;;;;;;5046446;28;20210;-82
2021/09/24 05:05:09;;;;;;;3.93;1.43;;;16.30;99.90;;;;;;5047766;28;20244;-86
2021/09/24 05:07:36;;;;;;;7.93;1.53;;;16.40;99.90;;;;;;5062667;28;20721;-82
2021/09/24 05:10:04;;;;;;;6.67;1.83;;;16.40;99.90;;;;;;5080504;28;20196;-81
2021/09/24 05:12:30;;;;;;;2.93;1.90;;;16.30;99.90;;;;;;5040795;28;20339;-82
2021/09/24 05:14:55;;;;;;;5.93;1.40;;;16.30;99.90;;;;;;5046047;28;20290;-84
2021/09/24 05:17:21;;;;;;;8.93;1.60;;;16.30;99.90;;;;;;5047257;28;20222;-85
2021/09/24 05:19:47;;;;;;;4.33;1.57;;;16.40;99.90;;;;;;5038184;28;20630;-84
2021/09/24 05:22:13;;;;;;;3.67;1.30;;;16.30;99.90;;;;;;5041591;28;20617;-82
2021/09/24 05:24:38;;;;;;;3.00;1.83;;;16.40;99.90;;;;;;5026707;28;20212;-81
2021/09/24 05:27:04;;;;;;;4.30;2.33;;;16.40;99.90;;;;;;5053828;28;20240;-82
2021/09/24 05:29:30;;;;;;;10.73;2.50;;;16.40;99.90;;;;;;5063673;28;20290;-82
2021/09/24 05:31:56;;;;;;;7.40;2.27;;;16.40;99.90;;;;;;5063042;28;20907;-86
2021/09/24 05:34:22;;;;;;;9.23;2.50;;;16.40;99.90;;;;;;5062270;28;20239;-83
2021/09/24 05:36:49;;;;;;;4.43;2.27;;;16.40;99.90;;;;;;5047024;28;20654;-81
2021/09/24 05:39:15;;;;;;;5.60;2.43;;;16.40;99.90;;;;;;5063089;28;20569;-81
2021/09/24 05:41:41;;;;;;;5.43;2.33;;;16.40;99.90;;;;;;5061222;28;20209;-81
2021/09/24 05:44:07;;;;;;;7.37;2.50;;;16.30;99.90;;;;;;5044021;28;20228;-81
2021/09/24 05:46:33;;;;;;;7.60;3.53;;;16.40;99.90;;;;;;5043762;28;20307;-81
2021/09/24 05:48:59;;;;;;;7.83;1.97;;;16.40;99.90;;;;;;5034736;28;20284;-82
2021/09/24 05:51:25;;;;;;;8.03;2.20;;;16.40;99.90;;;;;;5059913;28;20837;-82
2021/09/24 05:53:50;;;;;;;7.97;2.17;;;16.40;99.90;;;;;;5040758;28;20625;-81
2021/09/24 05:56:16;;;;;;;6.47;1.93;;;16.40;99.90;;;;;;5044952;28;20229;-82
2021/09/24 05:58:42;;;;;;;8.47;3.00;;;16.40;99.90;;;;;;5042876;28;20228;-83
2021/09/24 06:01:08;;;;;;;5.23;2.30;;;16.40;99.90;;;;;;5043916;28;20225;-82
2021/09/24 06:03:34;;;;;;;5.50;2.57;;;16.40;99.90;;;;;;5045781;28;20830;-81
2021/09/24 06:06:00;;;;;;;3.77;1.53;;;16.40;99.90;;;;;;5061864;28;20229;-82
2021/09/24 06:08:27;;;;;;;5.93;1.77;;;16.40;99.90;;;;;;5061803;28;20740;-81
2021/09/24 06:10:53;;;;;;;4.60;2.10;;;16.40;99.90;;;;;;5059533;28;20557;-82
2021/09/24 06:13:19;;;;;;;6.63;2.70;;;16.50;99.90;;;;;;5061318;28;20237;-81
2021/09/24 06:15:47;;;;;;;7.13;2.83;;;16.50;99.90;;;;;;5063080;28;20200;-82
2021/09/24 06:18:13;;;;;;;4.90;2.40;;;16.50;99.90;;;;;;5061554;28;20225;-81
2021/09/24 06:20:39;;;;;;;5.93;1.83;;;16.50;99.90;;;;;;5062624;28;20213;-82
2021/09/24 06:23:04;;;;;;;5.50;2.27;;;16.60;99.90;;;;;;5061531;28;20240;-80
2021/09/24 06:25:30;;;;;;;3.97;2.33;;;16.60;99.90;;;;;;5056389;28;20217;-80
2021/09/24 06:27:56;;;;;;;7.17;2.60;;;16.60;99.90;;;;;;5028059;28;20193;-81
2021/09/24 06:30:23;;;;;;;2.37;1.47;;;16.70;99.90;;;;;;5045876;28;20193;-80
2021/09/24 06:32:49;;;;;;;6.40;2.00;;;16.70;99.90;;;;;;5039840;28;20275;-81
2021/09/24 06:35:15;;;;;;;7.63;2.23;;;16.80;99.90;;;;;;5045548;28;20324;-82
2021/09/24 06:37:42;;;;;;;2.83;2.00;;;16.70;99.90;;;;;;5043793;28;20282;-81
2021/09/24 06:40:10;;;;;;;9.53;4.07;;;16.80;99.90;;;;;;5043290;28;20225;-79
2021/09/24 06:42:36;;;;;;;4.30;2.97;;;16.80;99.90;;;;;;5052267;28;20605;-80
2021/09/24 06:45:07;;;;;;;11.07;2.60;;;16.80;99.90;;;;;;5060894;28;20395;-81
2021/09/24 06:47:33;;;;;;;6.13;2.40;;;16.80;99.90;;;;;;5060473;28;20568;-80
2021/09/24 06:49:59;;;;;;;3.13;2.63;;;16.80;99.90;;;;;;5051934;28;20224;-80
2021/09/24 06:52:25;;;;;;;9.20;2.83;;;16.80;99.90;;;;;;5054251;28;20225;-80
2021/09/24 06:54:51;;;;;;;6.97;3.33;;;16.80;99.90;;;;;;5038744;28;20226;-80
2021/09/24 06:57:17;;;;;;;6.00;2.20;;;16.80;99.90;;;;;;5040989;28;20939;-81
2021/09/24 06:59:43;;;;;;;4.67;2.23;;;16.90;99.90;;;;;;5035937;28;20226;-84
2021/09/24 07:02:08;;;;;;;8.47;2.97;;;16.90;99.90;;;;;;5034016;28;20547;-84
2021/09/24 07:04:34;;;;;;;4.37;2.80;;;16.90;99.90;;;;;;5039532;28;20301;-82
2021/09/24 07:07:00;;;;;;;6.40;3.30;;;16.90;99.90;;;;;;5023424;28;20182;-83
2021/09/24 07:09:26;;;;;;;6.60;2.77;;;16.90;99.90;;;;;;5024163;28;20543;-84
2021/09/24 07:11:51;;;;;;;5.37;2.60;;;16.90;99.90;;;;;;5024282;28;20218;-85
2021/09/24 07:14:19;;;;;;;9.27;2.90;;;16.90;99.90;;;;;;5041734;28;20225;-84
2021/09/24 07:16:47;;;;;;;5.90;2.33;;;16.90;99.90;;;;;;5042009;28;20218;-84
2021/09/24 07:19:13;;;;;;;7.13;3.03;;;16.80;99.90;;;;;;5034095;28;20241;-83
2021/09/24 07:21:39;;;;;;;8.33;2.80;;;16.90;99.90;;;;;;5043155;28;20343;-83
2021/09/24 07:24:06;;;;;;;8.87;4.03;;;16.90;99.90;;;;;;5025115;28;20683;-84
2021/09/24 07:26:33;;;;;;;6.03;2.73;;;16.90;99.90;;;;;;5042801;28;20226;-85
2021/09/24 07:28:59;;;;;;;7.97;2.87;;;16.90;99.90;;;;;;5034866;28;21007;-83
2021/09/24 07:31:26;;;;;;;2.67;2.03;;;16.90;99.90;;;;;;5042323;28;20230;-85
2021/09/24 07:33:52;;;;;;;5.17;2.90;;;16.90;99.90;;;;;;5040426;28;20245;-86
2021/09/24 07:36:19;;;;;;;3.97;2.67;;;17.00;99.90;;;;;;5039387;28;20285;-84
2021/09/24 07:38:46;;;;;;;5.47;2.80;;;16.90;99.90;;;;;;5035635;28;20709;-84
2021/09/24 07:41:14;;;;;;;6.53;2.53;;;17.00;99.90;;;;;;5040209;28;20229;-84
2021/09/24 07:43:39;;;;;;;6.40;2.30;;;17.00;99.90;;;;;;5040492;28;20275;-83
2021/09/24 07:46:05;;;;;;;8.33;3.60;;;17.00;99.90;;;;;;5023510;28;20225;-84
2021/09/24 07:48:32;;;;;;;7.60;2.70;;;17.00;99.90;;;;;;5024251;28;20196;-84
2021/09/24 07:50:58;;;;;;;6.63;2.70;;;17.10;99.90;;;;;;5041759;28;20332;-86
2021/09/24 07:53:24;;;;;;;9.23;2.73;;;17.00;99.90;;;;;;5028618;28;20237;-84
2021/09/24 07:55:50;;;;;;;8.97;3.00;;;17.10;99.90;;;;;;5028349;28;20677;-85
2021/09/24 07:58:16;;;;;;;8.03;3.23;;;17.10;99.90;;;;;;5028342;28;20701;-83
2021/09/24 08:00:41;;;;;;;7.27;3.00;;;17.20;99.90;;;;;;5042263;28;20182;-85
2021/09/24 08:03:07;;;;;;;10.40;4.00;;;17.20;99.90;;;;;;5044570;28;20244;-84
2021/09/24 08:05:33;;;;;;;5.03;2.83;;;17.20;99.90;;;;;;5022833;28;20214;-85
2021/09/24 08:07:59;;;;;;;4.97;2.57;;;17.20;99.90;;;;;;5019044;28;20772;-86
2021/09/24 08:10:25;;;;;;;5.50;3.50;;;17.30;99.90;;;;;;5065929;28;20216;-84
2021/09/24 08:12:55;;;;;;;5.20;3.83;;;17.30;99.90;;;;;;5057426;28;20225;-85
2021/09/24 08:15:21;;;;;;;4.37;2.93;;;17.30;99.90;;;;;;5048993;28;21043;-84
2021/09/24 08:17:47;;;;;;;8.77;3.40;;;17.40;99.90;;;;;;5065072;28;20221;-85
2021/09/24 08:20:14;;;;;;;6.77;3.10;;;17.40;99.90;;;;;;5047481;28;20574;-85
2021/09/24 08:22:40;;;;;;;7.47;2.70;;;17.40;99.90;;;;;;5048614;28;20551;-85
2021/09/24 08:25:08;;;;;;;10.27;4.00;;;17.50;99.90;;;;;;5061078;28;20274;-85
2021/09/24 08:27:35;;;;;;;5.07;3.33;;;17.40;99.90;;;;;;5063940;28;20185;-85
2021/09/24 08:30:03;;;;;;;9.50;3.57;;;17.40;99.90;;;;;;5063142;28;20315;-86
2021/09/24 08:32:30;;;;;;;18.47;4.63;;;17.40;99.90;;;;;;5065203;28;20310;-84
2021/09/24 08:34:56;;;;;;;7.80;3.40;;;17.50;99.90;;;;;;5057380;28;20225;-85
2021/09/24 08:37:22;;;;;;;6.50;3.10;;;17.60;99.90;;;;;;5047626;28;20213;-85
2021/09/24 08:39:48;;;;;;;10.07;3.50;;;17.60;99.90;;;;;;5047789;28;20665;-84
2021/09/24 08:42:14;;;;;;;7.57;3.67;;;17.60;99.90;;;;;;5032304;28;20280;-85
2021/09/24 08:44:40;;;;;;;4.77;2.90;;;17.70;99.90;;;;;;5064774;28;20244;-84
2021/09/24 08:47:06;;;;;;;8.03;3.43;;;17.70;99.90;;;;;;5065414;28;20316;-85
2021/09/24 08:49:32;;;;;;;10.57;3.30;;;17.80;99.90;;;;;;5031662;28;20614;-83
2021/09/24 08:51:58;;;;;;;10.77;3.63;;;17.80;99.90;;;;;;5064517;28;20237;-85
2021/09/24 08:54:24;;;;;;;7.33;3.63;;;17.90;99.90;;;;;;5064523;28;20225;-86
2021/09/24 08:56:50;;;;;;;7.03;3.07;;;18.00;99.90;;;;;;5064514;28;20209;-87
2021/09/24 08:59:15;;;;;;;8.40;3.80;;;18.10;99.90;;;;;;5030571;28;20282;-86
2021/09/24 09:02:02;;;;;;;8.73;2.90;;;18.10;99.90;;;;;;5062098;28;20697;-87
2021/09/24 09:04:36;;;;;;;9.80;2.80;;;18.30;99.90;;;;;;5062314;28;20287;-86
2021/09/24 09:07:13;;;;;;;5.10;2.57;;;18.30;99.90;;;;;;5062794;28;20177;-85
2021/09/24 09:09:43;;;;;;;5.80;3.30;;;18.40;99.90;;;;;;5063784;28;20284;-84
2021/09/24 09:12:24;;;;;;;5.70;2.93;;;18.50;99.90;;;;;;5063304;28;20217;-84
2021/09/24 09:15:05;;;;;;;15.47;2.93;;;18.50;99.90;;;;;;5064808;28;20248;-85
2021/09/24 09:17:34;;;;;;;6.47;2.47;;;18.50;99.90;;;;;;5063203;28;20238;-86
2021/09/24 09:20:30;;;;;;;4.47;4.07;;;18.50;99.90;;;;;;5063246;28;20213;-82
2021/09/24 09:22:58;;;;;;;12.10;2.63;;;18.60;99.90;;;;;;5061476;28;20213;-84
2021/09/24 09:25:33;;;;;;;8.10;3.30;;;18.60;99.90;;;;;;5064507;28;20327;-84
2021/09/24 09:28:28;;;;;;;9.90;2.73;;;18.70;99.90;;;;;;5055173;28;20230;-88
2021/09/24 09:30:54;;;;;;;4.07;2.53;;;18.70;99.90;;;;;;5063081;28;20231;-85
2021/09/24 09:33:21;;;;;;;4.27;1.80;;;18.70;99.90;;;;;;5063676;28;20243;-87
2021/09/24 09:35:53;;;;;;;4.07;2.50;;;18.80;99.90;;;;;;5062393;28;20220;-84
2021/09/24 09:38:25;;;;;;;7.80;2.57;;;18.90;99.90;;;;;;5063900;28;20456;-86
2021/09/24 09:41:04;;;;;;;6.27;2.87;;;19.00;99.90;;;;;;5062464;28;20213;-85
2021/09/24 09:43:32;;;;;;;3.90;2.80;;;19.10;99.90;;;;;;5061611;28;20229;-85
2021/09/24 09:46:07;;;;;;;8.63;2.80;;;19.20;99.90;;;;;;5059054;28;20688;-86
2021/09/24 09:48:34;;;;;;;10.80;3.57;;;19.20;99.90;;;;;;5055542;28;20193;-85
2021/09/24 09:53:50;;;;;;;4.27;2.30;;;19.20;99.90;;;;;;5034653;27;20652;-86
2021/09/24 09:56:18;;;;;;;4.67;2.03;;;19.70;99.90;;;;;;5034133;28;20314;-89
2021/09/24 09:58:45;;;;;;;9.10;3.73;;;19.60;99.90;;;;;;5018786;28;20218;-88
2021/09/24 10:01:18;;;;;;;10.27;2.23;;;19.80;99.90;;;;;;5010911;28;20222;-88
2021/09/24 10:03:50;;;;;;;3.80;2.57;;;20.00;99.90;;;;;;5016182;28;20229;-87
2021/09/24 10:06:22;;;;;;;3.73;2.40;;;20.60;99.90;;;;;;5017208;28;20218;-87
2021/09/24 10:08:56;;;;;;;6.40;2.57;;;21.00;99.90;;;;;;5051964;28;20231;-87
2021/09/24 10:11:37;;;;;;;3.47;2.67;;;21.40;99.90;;;;;;5016336;28;20240;-86
2021/09/24 10:14:13;;;;;;;8.10;2.53;;;21.90;99.90;;;;;;5016449;28;20222;-85
2021/09/24 10:16:46;;;;;;;8.80;2.73;;;22.70;99.90;;;;;;5021494;28;20605;-85
2021/09/24 10:19:13;;;;;;;5.23;3.00;;;23.10;99.90;;;;;;5048972;28;20755;-84
2021/09/24 10:21:39;;;;;;;6.50;2.37;;;23.30;99.90;;;;;;5047721;28;20199;-83
2021/09/24 10:24:06;;;;;;;8.50;2.20;;;24.00;99.90;;;;;;5030362;28;20226;-83
2021/09/24 10:26:34;;;;;;;4.07;1.87;;;23.70;99.90;;;;;;5046240;28;20215;-83
2021/09/24 10:29:13;;;;;;;4.10;1.80;;;23.30;99.90;;;;;;5046763;28;20222;-84
2021/09/24 10:31:44;;;;;;;4.27;1.97;;;22.10;99.90;;;;;;5014210;28;20267;-83
2021/09/24 10:34:10;;;;;;;5.60;2.70;;;22.30;99.90;;;;;;5045231;28;20226;-84
2021/09/24 10:36:48;;;;;;;4.47;1.70;;;21.60;99.90;;;;;;5012575;28;20566;-83
2021/09/24 10:39:29;;;;;;;5.73;1.70;;;21.60;99.90;;;;;;5014269;28;20281;-82
2021/09/24 10:42:24;;;;;;;5.53;1.53;;;22.40;99.90;;;;;;5013307;28;20591;-83
2021/09/24 10:45:03;;;;;;;2.53;1.53;;;22.60;99.90;;;;;;5040229;28;20623;-82
2021/09/24 10:47:49;;;;;;;7.40;1.67;;;23.20;99.90;;;;;;5012905;28;20249;-83
2021/09/24 10:50:30;;;;;;;4.40;1.40;;;23.30;99.90;;;;;;5045302;28;20680;-85
2021/09/24 10:53:21;;;;;;;3.33;1.43;;;22.90;99.90;;;;;;5045300;28;20239;-83
2021/09/24 10:55:53;;;;;;;2.97;1.37;;;23.00;99.90;;;;;;5016899;28;20229;-83
2021/09/24 10:58:28;;;;;;;7.00;1.42;;;23.30;99.90;;;;;;5013953;28;20475;-85
2021/09/24 11:01:10;;;;;;;2.78;1.48;;;23.50;99.90;;;;;;5014555;28;20194;-84
2021/09/24 11:03:49;;;;;;;3.85;1.60;;;23.50;99.90;;;;;;5009618;28;20942;-85
2021/09/24 11:06:15;;;;;;;2.85;1.88;;;23.90;99.90;;;;;;4996639;28;20799;-86
2021/09/24 11:08:43;;;;;;;4.50;1.90;;;23.00;99.90;;;;;;5000096;28;20219;-87
2021/09/24 11:11:13;;;;;;;3.30;1.85;;;23.20;99.90;;;;;;4999832;28;20223;-85
2021/09/24 11:13:42;;;;;;;2.25;1.88;;;22.90;99.90;;;;;;5031767;28;20238;-85
2021/09/24 11:16:10;;;;;;;4.88;2.08;;;22.70;99.90;;;;;;5000326;28;20298;-85
2021/09/24 11:18:53;;;;;;;4.72;2.10;;;23.10;99.90;;;;;;4998644;28;20293;-85
2021/09/24 11:21:38;;;;;;;9.70;2.88;;;23.50;99.90;;;;;;4997130;28;20222;-86
2021/09/24 11:24:25;;;;;;;3.55;2.42;;;23.30;99.90;;;;;;4999657;28;20539;-84
2021/09/24 11:26:56;;;;;;;6.20;2.08;;;23.10;99.90;;;;;;5009168;28;20219;-86
2021/09/24 11:29:23;;;;;;;5.65;2.65;;;22.60;99.90;;;;;;5001216;28;20223;-86
2021/09/24 11:32:01;;;;;;;4.72;1.63;;;22.40;99.90;;;;;;5001408;28;20232;-85
2021/09/24 11:34:33;;;;;;;4.38;2.33;;;22.50;99.90;;;;;;4999731;28;20276;-84
2021/09/24 11:37:04;;;;;;;7.32;2.45;;;22.50;99.90;;;;;;5031855;28;20199;-84
2021/09/24 11:39:30;;;;;;;6.13;2.58;;;22.40;99.90;;;;;;4999432;28;20306;-83
2021/09/24 11:42:08;;;;;;;3.30;1.80;;;22.70;99.90;;;;;;4981419;28;20312;-82
2021/09/24 11:44:35;;;;;;;3.83;2.50;;;22.30;99.90;;;;;;5000032;28;20743;-82
2021/09/24 11:47:00;;;;;;;4.10;2.40;;;22.70;99.90;;;;;;5032133;28;20223;-84
2021/09/24 11:49:26;;;;;;;2.97;1.83;;;22.20;99.90;;;;;;5015366;28;20257;-82
2021/09/24 11:52:10;;;;;;;6.47;2.15;;;22.10;99.90;;;;;;4999971;28;20790;-81
2021/09/24 11:54:36;;;;;;;3.10;2.13;;;22.20;99.90;;;;;;5000698;28;20565;-82
2021/09/24 11:57:16;;;;;;;8.05;2.58;;;22.60;99.90;;;;;;4996975;28;20219;-83
2021/09/24 11:59:43;;;;;;;5.77;2.40;;;22.40;99.90;;;;;;4997618;28;20334;-83
2021/09/24 12:02:21;;;;;;;5.55;2.65;;;22.10;99.90;;;;;;4995832;28;20219;-83
2021/09/24 12:05:01;;;;;;;3.33;2.00;;;22.30;99.90;;;;;;4996251;28;20246;-83
2021/09/24 12:07:27;;;;;;;5.33;1.87;;;22.20;99.90;;;;;;5028522;28;20216;-84
2021/09/24 12:10:03;;;;;;;3.83;2.10;;;21.90;99.90;;;;;;4998301;28;20198;-83
2021/09/24 12:12:29;;;;;;;4.07;1.88;;;22.00;99.90;;;;;;4994681;28;20203;-82
2021/09/24 12:14:56;;;;;;;5.33;2.37;;;21.80;99.90;;;;;;4994306;28;20215;-84
2021/09/24 12:17:24;;;;;;;4.70;2.13;;;21.50;99.90;;;;;;4997412;28;20967;-84
2021/09/24 12:19:49;;;;;;;4.07;1.57;;;21.60;99.90;;;;;;5011069;28;20744;-84
2021/09/24 12:22:17;;;;;;;4.17;2.23;;;21.70;99.90;;;;;;5014716;28;20233;-86
2021/09/24 12:24:45;;;;;;;3.27;2.30;;;21.90;99.90;;;;;;5013931;28;20261;-84
2021/09/24 12:27:31;;;;;;;2.67;1.80;;;21.90;99.90;;;;;;5000415;28;20215;-84
2021/09/24 12:30:15;;;;;;;6.30;2.13;;;21.90;99.90;;;;;;5000626;28;20354;-85
2021/09/24 12:32:41;;;;;;;4.13;2.47;;;21.70;99.90;;;;;;5000853;28;20227;-84
2021/09/24 12:35:08;;;;;;;5.10;2.17;;;21.70;99.90;;;;;;5003100;28;20372;-84
2021/09/24 12:37:42;;;;;;;6.07;2.27;;;21.60;99.90;;;;;;5001515;28;20220;-84
2021/09/24 12:40:16;;;;;;;3.37;1.87;;;21.50;99.90;;;;;;5002188;28;20804;-91
2021/09/24 12:42:44;;;;;;;3.90;1.77;;;21.60;99.90;;;;;;5037049;28;20443;-89
2021/09/24 12:45:22;;;;;;;4.70;1.73;;;21.70;99.90;;;;;;5003376;28;20515;-93
2021/09/24 12:47:49;;;;;;;2.37;1.47;;;21.30;99.90;;;;;;4995558;28;20318;-91
2021/09/24 12:50:15;;;;;;;3.20;1.63;;;21.20;99.90;;;;;;5036202;28;20273;-93
2021/09/24 12:52:41;;;;;;;4.43;1.70;;;21.30;99.90;;;;;;5035444;28;20700;-92